createdAt,value
2022-10-26T00:01:25.634Z,1.77
2022-10-26T00:06:30.016Z,5.25
2022-10-26T00:11:32.743Z,0.73
2022-10-26T00:16:35.310Z,3.67
2022-10-26T00:21:39.216Z,3.22
2022-10-26T00:26:41.829Z,3.70
2022-10-26T00:31:44.393Z,2.33
2022-10-26T00:36:48.184Z,4.65
2022-10-26T00:46:53.064Z,9.18
2022-10-26T00:51:57.006Z,2.90
2022-10-26T00:56:59.802Z,2.53
2022-10-26T01:02:02.571Z,5.63
2022-10-26T01:07:07.042Z,3.00
2022-10-26T01:12:12.498Z,4.38
2022-10-26T01:17:26.473Z,2.47
2022-10-26T01:22:35.956Z,4.30
2022-10-26T01:27:39.510Z,3.25
2022-10-26T01:32:47.415Z,1.52
2022-10-26T01:37:54.845Z,4.10
2022-10-26T01:42:58.571Z,4.78
2022-10-26T01:48:03.848Z,3.38
2022-10-26T01:53:06.344Z,3.08
2022-10-26T01:58:14.662Z,3.50
2022-10-26T02:03:21.676Z,1.92
2022-10-26T02:08:28.884Z,3.17
2022-10-26T02:13:34.830Z,3.05
2022-10-26T02:18:43.850Z,5.30
2022-10-26T02:23:47.976Z,4.13
2022-10-26T02:28:52.466Z,2.70
2022-10-26T02:33:58.111Z,6.32
2022-10-26T02:39:01.031Z,4.13
2022-10-26T02:44:07.613Z,4.25
2022-10-26T02:49:11.693Z,2.33
2022-10-26T02:54:16.863Z,3.58
2022-10-26T02:59:20.878Z,5.35
2022-10-26T03:04:30.687Z,2.63
2022-10-26T03:09:33.276Z,2.03
2022-10-26T03:14:36.606Z,4.20
2022-10-26T03:19:40.543Z,1.73
2022-10-26T03:24:47.378Z,2.90
2022-10-26T03:29:49.831Z,3.53
2022-10-26T03:34:53.739Z,2.25
2022-10-26T03:39:56.381Z,1.90
2022-10-26T03:44:58.683Z,4.95
2022-10-26T03:50:02.547Z,2.20
2022-10-26T03:55:06.164Z,1.33
2022-10-26T04:00:09.276Z,2.33
2022-10-26T04:05:13.155Z,2.07
2022-10-26T04:10:15.694Z,2.97
2022-10-26T04:15:18.824Z,2.80
2022-10-26T04:20:22.618Z,2.73
2022-10-26T04:25:27.515Z,7.00
2022-10-26T04:30:33.784Z,1.83
2022-10-26T04:35:37.795Z,4.97
2022-10-26T04:45:43.003Z,1.95
2022-10-26T04:50:47.549Z,3.25
2022-10-26T04:55:50.201Z,3.70
2022-10-26T05:00:53.080Z,3.95
2022-10-26T05:05:58.981Z,2.13
2022-10-26T05:11:01.520Z,3.47
2022-10-26T05:16:04.133Z,3.55
2022-10-26T05:21:08.260Z,3.13
2022-10-26T05:26:10.817Z,4.68
2022-10-26T05:31:13.661Z,3.42
2022-10-26T05:36:17.819Z,3.25
2022-10-26T05:41:20.425Z,4.72
2022-10-26T05:46:22.987Z,3.25
2022-10-26T05:51:26.823Z,5.43
2022-10-26T05:56:35.127Z,5.50
2022-10-26T06:01:42.081Z,4.57
2022-10-26T06:06:48.337Z,4.38
2022-10-26T06:11:51.190Z,4.82
2022-10-26T06:17:04.775Z,4.23
2022-10-26T06:22:14.181Z,3.67
2022-10-26T06:27:22.875Z,5.05
2022-10-26T06:32:26.040Z,5.05
2022-10-26T06:37:30.575Z,5.77
2022-10-26T06:42:33.562Z,3.47
2022-10-26T06:47:40.013Z,6.03
2022-10-26T06:52:45.295Z,3.25
2022-10-26T06:57:48.587Z,5.90
2022-10-26T07:02:52.058Z,3.55
2022-10-26T07:07:56.163Z,3.15
2022-10-26T07:18:03.140Z,6.15
2022-10-26T07:23:08.053Z,9.05
2022-10-26T07:28:11.367Z,3.05
2022-10-26T07:33:14.684Z,6.90
2022-10-26T07:38:18.629Z,3.42
2022-10-26T07:43:21.325Z,3.53
2022-10-26T07:48:23.926Z,3.25
2022-10-26T07:53:28.231Z,4.33
2022-10-26T07:58:30.955Z,9.30
2022-10-26T08:03:33.670Z,2.28
2022-10-26T08:08:37.499Z,2.92
2022-10-26T08:18:42.288Z,2.05
2022-10-26T08:23:46.302Z,8.93
2022-10-26T08:28:49.712Z,3.08
2022-10-26T08:33:52.341Z,0.88
2022-10-26T08:38:56.256Z,5.85
2022-10-26T08:44:06.491Z,5.38
2022-10-26T08:49:19.138Z,4.68
2022-10-26T08:54:26.721Z,5.85
2022-10-26T08:59:32.008Z,1.38
2022-10-26T09:04:35.725Z,2.10
2022-10-26T09:09:44.702Z,3.78
2022-10-26T09:14:53.299Z,2.55
2022-10-26T09:20:06.068Z,4.60
2022-10-26T09:30:15.632Z,2.10
2022-10-26T09:35:27.105Z,3.35
2022-10-26T09:40:34.251Z,3.45
2022-10-26T09:45:39.606Z,3.22
2022-10-26T09:50:44.539Z,3.38
2022-10-26T09:55:48.995Z,8.05
2022-10-26T10:00:53.222Z,2.60
2022-10-26T10:06:15.736Z,3.88
2022-10-26T10:11:18.229Z,1.38
2022-10-26T10:16:24.048Z,2.65
2022-10-26T10:21:34.174Z,2.65
2022-10-26T10:26:56.556Z,2.22
2022-10-26T10:32:01.303Z,4.90
2022-10-26T10:37:04.266Z,2.33
2022-10-26T10:42:08.889Z,1.58
2022-10-26T10:47:19.864Z,3.47
2022-10-26T10:52:27.283Z,3.55
2022-10-26T10:57:33.625Z,3.33
2022-10-26T11:02:51.052Z,4.30
2022-10-26T11:07:58.010Z,2.38
2022-10-26T11:13:03.770Z,7.22
2022-10-26T11:18:10.857Z,1.98
2022-10-26T11:23:18.111Z,3.47
2022-10-26T11:28:26.134Z,3.58
2022-10-26T11:33:32.062Z,2.03
2022-10-26T11:38:46.129Z,3.67
2022-10-26T11:43:49.836Z,4.90
2022-10-26T11:48:55.562Z,5.65
2022-10-26T11:54:02.743Z,5.13
2022-10-26T11:59:05.918Z,6.63
2022-10-26T12:09:16.470Z,2.45
2022-10-26T12:14:22.669Z,4.50
2022-10-26T12:24:38.898Z,9.43
2022-10-26T12:29:46.643Z,3.60
2022-10-26T12:34:59.475Z,4.88
2022-10-26T12:40:20.550Z,5.60
2022-10-26T12:45:24.898Z,6.45
2022-10-26T12:50:27.557Z,3.63
2022-10-26T12:55:48.970Z,5.07
2022-10-26T13:01:09.497Z,7.57
2022-10-26T13:06:18.597Z,6.72
2022-10-26T13:11:25.554Z,7.60
2022-10-26T13:16:30.343Z,6.13
2022-10-26T13:21:33.005Z,7.35
2022-10-26T13:26:55.507Z,10.27
2022-10-26T13:31:59.774Z,6.28
2022-10-26T13:37:07.969Z,5.25
2022-10-26T13:42:14.608Z,12.48
2022-10-26T13:47:28.435Z,7.72
2022-10-26T13:52:34.822Z,5.57
2022-10-26T13:57:39.502Z,5.45
2022-10-26T14:02:43.982Z,5.35
2022-10-26T14:07:52.630Z,7.70
2022-10-26T14:12:58.558Z,7.65
2022-10-26T14:18:04.026Z,6.07
2022-10-26T14:23:06.886Z,4.68
2022-10-26T14:28:21.300Z,8.63
2022-10-26T14:33:27.298Z,5.45
2022-10-26T14:38:43.318Z,4.78
2022-10-26T14:43:46.752Z,7.88
2022-10-26T14:48:54.391Z,6.03
2022-10-26T14:53:58.171Z,5.00
2022-10-26T14:59:00.810Z,11.63
2022-10-26T15:04:06.228Z,4.53
2022-10-26T15:09:29.430Z,4.40
2022-10-26T15:14:32.326Z,4.70
2022-10-26T15:19:36.744Z,7.40
2022-10-26T15:24:40.432Z,8.25
2022-10-26T15:29:43.587Z,8.45
2022-10-26T15:34:50.215Z,9.43
2022-10-26T15:39:52.631Z,7.93
2022-10-26T15:44:55.044Z,9.80
2022-10-26T15:49:59.098Z,3.60
2022-10-26T15:55:01.559Z,9.02
2022-10-26T16:00:04.920Z,9.40
2022-10-26T16:05:09.673Z,7.00
2022-10-26T16:10:16.682Z,7.20
2022-10-26T16:15:20.301Z,10.63
2022-10-26T16:25:27.233Z,9.53
2022-10-26T16:30:31.043Z,6.85
2022-10-26T16:35:34.065Z,10.52
2022-10-26T16:40:42.783Z,10.45
2022-10-26T16:45:45.789Z,6.78
2022-10-26T16:50:48.280Z,11.75
2022-10-26T16:55:52.101Z,12.02
2022-10-26T17:00:55.487Z,13.68
2022-10-26T17:05:58.537Z,9.23
2022-10-26T17:16:05.552Z,10.75
2022-10-26T17:21:08.750Z,12.55
2022-10-26T17:26:12.200Z,11.40
2022-10-26T17:31:16.398Z,5.70
2022-10-26T17:36:20.295Z,9.23
2022-10-26T17:41:22.956Z,16.23
2022-10-26T17:46:27.395Z,11.13
2022-10-26T17:51:30.733Z,7.25
2022-10-26T17:56:34.493Z,14.70
2022-10-26T18:01:38.734Z,8.80
2022-10-26T18:06:41.475Z,10.15
2022-10-26T18:11:44.002Z,13.50
2022-10-26T18:16:48.419Z,13.52
2022-10-26T18:21:50.962Z,10.38
2022-10-26T18:26:53.457Z,13.30
2022-10-26T18:31:57.943Z,15.13
2022-10-26T18:37:06.849Z,16.13
2022-10-26T18:42:09.448Z,18.77
2022-10-26T18:47:13.331Z,17.55
2022-10-26T18:52:15.773Z,16.10
2022-10-26T18:57:18.798Z,18.13
2022-10-26T19:02:23.182Z,19.03
2022-10-26T19:07:26.226Z,12.55
2022-10-26T19:12:28.819Z,15.57
2022-10-26T19:17:32.973Z,15.13
2022-10-26T19:22:35.660Z,14.88
2022-10-26T19:27:38.745Z,9.93
2022-10-26T19:32:42.964Z,11.63
2022-10-26T19:37:45.599Z,17.50
2022-10-26T19:42:48.296Z,13.15
2022-10-26T19:47:52.488Z,10.50
2022-10-26T19:52:55.255Z,10.93
2022-10-26T19:57:57.980Z,14.07
2022-10-26T20:03:01.807Z,15.98
2022-10-26T20:13:06.597Z,13.60
2022-10-26T20:18:12.069Z,12.15
2022-10-26T20:23:14.633Z,9.65
2022-10-26T20:28:17.721Z,12.88
2022-10-26T20:33:21.689Z,15.87
2022-10-26T20:38:24.696Z,12.48
2022-10-26T20:43:28.292Z,18.83
2022-10-26T20:48:32.430Z,16.20
2022-10-26T20:53:36.232Z,11.68
2022-10-26T20:58:41.098Z,11.63
2022-10-26T21:03:45.049Z,12.90
2022-10-26T21:08:49.563Z,10.93
2022-10-26T21:13:53.297Z,13.52
2022-10-26T21:18:57.087Z,8.02
2022-10-26T21:23:59.532Z,9.48
2022-10-26T21:29:02.135Z,5.57
2022-10-26T21:34:05.977Z,11.05
2022-10-26T21:44:23.527Z,10.32
2022-10-26T21:49:35.266Z,9.93
2022-10-26T21:54:37.953Z,7.72
2022-10-26T21:59:40.415Z,9.75
2022-10-26T22:04:44.270Z,11.50
2022-10-26T22:10:00.680Z,9.95
2022-10-26T22:15:10.141Z,15.45
2022-10-26T22:20:14.180Z,9.47
2022-10-26T22:25:23.019Z,9.05
2022-10-26T22:30:25.626Z,10.43
2022-10-26T22:35:30.065Z,12.73
2022-10-26T22:40:32.852Z,9.10
2022-10-26T22:45:35.397Z,15.57
2022-10-26T22:50:39.738Z,8.70
2022-10-26T22:55:42.307Z,9.35
2022-10-26T23:00:44.987Z,8.73
2022-10-26T23:05:59.299Z,8.63
2022-10-26T23:11:02.180Z,10.10
2022-10-26T23:16:06.031Z,9.88
2022-10-26T23:21:10.383Z,8.32
2022-10-26T23:26:14.298Z,7.85
2022-10-26T23:31:19.045Z,8.45
2022-10-26T23:36:22.924Z,11.00
2022-10-26T23:41:25.641Z,3.60
2022-10-26T23:46:28.247Z,3.80
2022-10-26T23:51:32.291Z,8.93
2022-10-26T23:56:35.129Z,8.38
